Time;durP1;ratioP1;P1;durP2;ratioP2;P2;SDS_P1;SDS_P2;PMS_P1;PMS_P2;Temp;Humidity;BMP_temperature;BMP_pressure;BME280_temperature;BME280_humidity;BME280_pressure;Samples;Min_cycle;Max_cycle;Signal;HPM_P1;HPM_P2
2020/12/12 00:02:14;;;;;;;9.10;2.92;;;;;;;16.26;44.39;99152.00;5014191;28;20025;-77
2020/12/12 00:04:40;;;;;;;15.35;3.67;;;;;;;15.88;45.09;99147.91;5012847;28;20022;-79
2020/12/12 00:07:06;;;;;;;12.27;2.80;;;;;;;16.04;44.62;99159.38;5014087;28;20025;-79
2020/12/12 00:09:32;;;;;;;11.05;3.10;;;;;;;15.70;45.56;99162.38;5012760;28;20121;-79
2020/12/12 00:11:58;;;;;;;11.18;3.03;;;;;;;15.77;45.31;99175.38;5013975;28;20538;-80
2020/12/12 00:14:23;;;;;;;9.32;3.67;;;;;;;15.61;45.77;99178.44;5013868;28;20109;-79
2020/12/12 00:16:53;;;;;;;8.20;2.60;;;;;;;15.85;45.04;99181.72;5013899;28;20392;-79
2020/12/12 00:19:19;;;;;;;15.45;3.63;;;;;;;15.95;44.91;99192.81;5013810;28;20040;-79
2020/12/12 00:21:50;;;;;;;8.80;3.78;;;;;;;15.62;45.54;99207.56;5013729;28;20041;-80
2020/12/12 00:24:15;;;;;;;9.73;3.35;;;;;;;15.70;45.33;99197.38;5013758;28;20040;-79
2020/12/12 00:26:41;;;;;;;8.73;2.92;;;;;;;16.02;44.16;99209.38;5012463;28;20026;-79
2020/12/12 00:29:07;;;;;;;10.43;2.78;;;;;;;16.09;44.14;99203.06;5013706;28;20476;-79
2020/12/12 00:31:32;;;;;;;13.23;3.55;;;;;;;16.09;43.93;99205.84;5013665;28;20033;-80
2020/12/12 00:33:58;;;;;;;6.20;2.08;;;;;;;15.95;44.33;99214.06;5013510;28;20033;-80
2020/12/12 00:36:23;;;;;;;9.50;3.00;;;;;;;16.08;44.09;99215.28;5013513;28;20032;-79
2020/12/12 00:38:49;;;;;;;7.25;2.80;;;;;;;16.07;43.88;99228.28;5013640;28;20026;-78
2020/12/12 00:41:14;;;;;;;6.78;2.70;;;;;;;15.92;44.17;99221.09;5013456;28;20369;-79
2020/12/12 00:43:40;;;;;;;7.57;2.92;;;;;;;15.86;44.17;99232.88;5013450;28;20084;-78
2020/12/12 00:46:06;;;;;;;7.88;2.42;;;;;;;15.85;43.58;99236.81;5012036;28;20032;-78
2020/12/12 00:48:31;;;;;;;5.72;2.58;;;;;;;15.85;43.82;99245.06;5012058;28;20026;-78
2020/12/12 00:50:57;;;;;;;11.40;2.72;;;;;;;15.67;44.22;99240.25;5013365;28;20022;-78
2020/12/12 00:53:23;;;;;;;7.88;2.45;;;;;;;15.89;43.64;99254.94;5013202;28;20105;-78
2020/12/12 00:55:48;;;;;;;7.03;2.13;;;;;;;15.47;44.65;99245.16;5012664;28;20384;-78
2020/12/12 00:58:14;;;;;;;7.40;2.63;;;;;;;15.18;45.32;99259.88;5013224;28;20021;-78
2020/12/12 01:00:39;;;;;;;9.00;2.55;;;;;;;15.32;44.83;99253.69;5013279;28;20027;-78
2020/12/12 01:03:05;;;;;;;7.55;2.67;;;;;;;15.57;44.15;99260.22;5013093;28;20392;-79
2020/12/12 01:05:31;;;;;;;13.25;3.90;;;;;;;15.63;44.05;99263.41;5013156;28;20407;-79
2020/12/12 01:07:58;;;;;;;7.38;2.22;;;;;;;15.36;44.52;99266.34;5012939;28;20105;-79
2020/12/12 01:10:25;;;;;;;7.47;2.03;;;;;;;15.07;45.20;99281.00;5013144;28;20021;-80
2020/12/12 01:12:51;;;;;;;11.20;2.70;;;;;;;15.43;44.32;99265.59;5013091;28;20105;-80
2020/12/12 01:15:18;;;;;;;11.75;3.15;;;;;;;14.78;45.71;99279.91;5011668;28;20084;-79
2020/12/12 01:17:44;;;;;;;9.32;2.10;;;;;;;15.25;44.59;99282.72;5012990;28;20072;-80
2020/12/12 01:20:10;;;;;;;9.27;2.60;;;;;;;15.42;43.96;99273.06;5012662;28;20440;-80
2020/12/12 01:22:36;;;;;;;7.97;2.47;;;;;;;15.29;44.26;99282.78;5010681;28;20026;-80
2020/12/12 01:25:03;;;;;;;10.43;3.28;;;;;;;15.46;43.84;99282.13;5012324;28;20057;-79
2020/12/12 01:27:28;;;;;;;15.00;2.80;;;;;;;15.47;43.81;99280.97;5012920;28;20026;-79
2020/12/12 01:29:55;;;;;;;13.68;3.10;;;;;;;15.59;43.53;99285.38;5012730;28;20542;-79
2020/12/12 01:32:21;;;;;;;11.07;3.03;;;;;;;15.70;43.02;99293.75;5012830;28;20053;-79
2020/12/12 01:34:46;;;;;;;8.52;2.53;;;;;;;15.58;43.39;99305.06;5012714;28;20515;-79
2020/12/12 01:37:12;;;;;;;8.02;2.50;;;;;;;15.36;43.76;99307.63;5012780;28;20030;-79
2020/12/12 01:39:38;;;;;;;6.95;2.00;;;;;;;15.30;44.06;99311.88;5012780;28;20041;-79
2020/12/12 01:42:03;;;;;;;11.23;3.95;;;;;;;15.23;44.08;99309.84;5012787;28;20424;-79
2020/12/12 01:44:29;;;;;;;6.13;2.58;;;;;;;15.32;43.80;99311.50;5012788;28;20036;-79
2020/12/12 01:46:57;;;;;;;17.98;2.85;;;;;;;15.14;44.11;99309.38;5012672;28;20030;-80
2020/12/12 01:49:22;;;;;;;10.15;3.50;;;;;;;15.13;44.05;99313.28;5012710;28;20379;-79
2020/12/12 01:51:48;;;;;;;14.77;3.17;;;;;;;15.15;43.93;99316.44;5012653;28;20105;-80
2020/12/12 01:54:14;;;;;;;8.75;3.03;;;;;;;15.03;44.11;99324.97;5012573;28;20088;-79
2020/12/12 01:56:40;;;;;;;7.70;2.70;;;;;;;15.06;43.62;99321.47;5012575;28;20049;-78
2020/12/12 01:59:06;;;;;;;7.90;2.35;;;;;;;15.17;43.67;99329.81;5012651;28;20377;-79
2020/12/12 02:01:37;;;;;;;13.50;2.83;;;;;;;15.20;43.32;99337.34;5012549;28;20033;-79
2020/12/12 02:04:05;;;;;;;8.88;3.22;;;;;;;14.95;43.79;99340.59;5011364;28;20034;-80
2020/12/12 02:06:31;;;;;;;7.85;2.55;;;;;;;14.75;44.45;99347.44;5012566;28;20079;-80
2020/12/12 02:08:57;;;;;;;8.45;3.28;;;;;;;14.98;43.89;99355.56;5014285;28;20029;-79
2020/12/12 02:11:22;;;;;;;11.27;2.97;;;;;;;15.05;43.45;99357.63;5016258;28;20026;-79
2020/12/12 02:13:48;;;;;;;7.32;2.90;;;;;;;14.95;43.94;99346.09;5016146;28;20376;-79
2020/12/12 02:16:18;;;;;;;8.15;2.72;;;;;;;15.34;42.50;99355.94;5015988;28;20357;-79
2020/12/12 02:18:44;;;;;;;11.98;2.88;;;;;;;15.39;42.40;99366.59;5016203;28;20022;-79
2020/12/12 02:21:10;;;;;;;10.00;3.22;;;;;;;15.37;42.58;99371.69;5015803;28;20088;-79
2020/12/12 02:23:36;;;;;;;9.45;2.47;;;;;;;15.24;42.70;99365.66;5014806;28;20562;-81
2020/12/12 02:26:02;;;;;;;13.38;3.40;;;;;;;15.17;42.64;99365.59;5016012;28;20401;-79
2020/12/12 02:28:50;;;;;;;10.55;3.72;;;;;;;14.98;42.78;99378.38;5015973;28;20026;-79
2020/12/12 02:31:16;;;;;;;11.52;3.45;;;;;;;14.99;43.03;99379.94;5015862;28;20481;-79
2020/12/12 02:33:42;;;;;;;12.65;2.90;;;;;;;15.08;42.61;99376.91;5015803;28;20160;-79
2020/12/12 02:36:08;;;;;;;6.57;2.33;;;;;;;15.15;42.64;99389.94;5015765;28;20161;-79
2020/12/12 02:38:34;;;;;;;11.48;2.85;;;;;;;15.14;42.34;99391.91;5015724;28;20477;-80
2020/12/12 02:40:59;;;;;;;10.18;3.13;;;;;;;14.95;42.73;99398.34;5015707;28;20105;-79
2020/12/12 02:43:25;;;;;;;8.13;2.90;;;;;;;15.20;42.11;99401.41;5014438;28;20488;-79
2020/12/12 02:45:50;;;;;;;7.13;3.15;;;;;;;14.95;42.69;99401.09;5015625;28;20029;-79
2020/12/12 02:48:16;;;;;;;10.23;3.90;;;;;;;15.01;42.62;99398.03;5015612;28;20357;-80
2020/12/12 02:50:43;;;;;;;14.80;3.15;;;;;;;15.03;42.21;99403.94;5015629;28;20029;-79
2020/12/12 02:53:09;;;;;;;7.72;2.85;;;;;;;14.85;42.68;99418.28;5015544;28;20034;-79
2020/12/12 02:55:35;;;;;;;9.57;3.63;;;;;;;15.01;42.57;99423.56;5015438;28;20407;-80
2020/12/12 02:58:00;;;;;;;8.57;3.40;;;;;;;14.83;42.46;99417.88;5015360;28;20021;-79
2020/12/12 03:00:26;;;;;;;10.23;2.88;;;;;;;14.82;42.78;99434.75;5015386;28;20089;-79
2020/12/12 03:02:52;;;;;;;13.27;3.20;;;;;;;14.74;42.73;99422.84;5015351;28;20112;-79
2020/12/12 03:05:18;;;;;;;14.43;3.80;;;;;;;14.75;42.51;99449.19;5015224;28;20117;-80
2020/12/12 03:07:44;;;;;;;10.07;2.72;;;;;;;14.80;42.63;99443.34;5015266;28;20113;-79
2020/12/12 03:10:10;;;;;;;13.75;3.10;;;;;;;14.88;42.45;99442.25;5015315;28;20052;-80
2020/12/12 03:12:38;;;;;;;8.40;3.08;;;;;;;14.55;43.07;99448.50;5015045;28;20026;-79
2020/12/12 03:15:05;;;;;;;13.40;3.55;;;;;;;14.37;43.26;99450.16;5013711;28;20492;-79
2020/12/12 03:17:31;;;;;;;6.60;2.55;;;;;;;14.35;43.26;99456.00;5013807;28;20029;-79
2020/12/12 03:19:56;;;;;;;8.20;3.13;;;;;;;14.34;43.35;99464.63;5014148;28;20465;-79
2020/12/12 03:22:22;;;;;;;11.13;2.90;;;;;;;14.11;43.55;99462.69;5013598;28;20030;-79
2020/12/12 03:24:48;;;;;;;11.73;2.83;;;;;;;14.28;43.28;99472.41;5013575;28;20484;-79
2020/12/12 03:27:13;;;;;;;13.52;3.70;;;;;;;14.17;43.56;99479.69;5013564;28;20038;-79
2020/12/12 03:29:39;;;;;;;13.70;3.35;;;;;;;14.16;43.52;99478.09;5013311;28;20041;-79
2020/12/12 03:32:09;;;;;;;13.77;2.65;;;;;;;13.83;44.22;99487.75;5013622;28;20069;-80
2020/12/12 03:34:39;;;;;;;10.70;3.28;;;;;;;13.68;44.56;99496.06;5014688;28;20059;-79
2020/12/12 03:37:07;;;;;;;9.13;3.38;;;;;;;14.22;43.08;99484.09;5013383;28;20041;-79
2020/12/12 03:39:33;;;;;;;12.93;3.35;;;;;;;14.16;43.57;99489.88;5014658;28;20028;-79
2020/12/12 03:41:58;;;;;;;9.45;2.95;;;;;;;14.07;43.56;99485.78;5014631;28;20357;-79
2020/12/12 03:44:24;;;;;;;13.73;4.22;;;;;;;14.22;43.32;99493.13;5013207;28;20037;-79
2020/12/12 03:46:50;;;;;;;16.15;3.38;;;;;;;14.20;43.23;99492.66;5012942;28;20442;-79
2020/12/12 03:49:16;;;;;;;11.32;3.20;;;;;;;14.08;43.52;99487.38;5012615;28;20432;-79
2020/12/12 03:51:42;;;;;;;9.85;3.05;;;;;;;14.06;43.56;99492.44;5012705;28;20141;-80
2020/12/12 03:54:07;;;;;;;13.20;3.95;;;;;;;13.92;43.79;99503.97;5012474;28;20038;-79
2020/12/12 03:56:33;;;;;;;11.98;3.00;;;;;;;13.83;44.00;99506.16;5012464;28;20033;-79
2020/12/12 03:58:59;;;;;;;12.90;3.22;;;;;;;13.81;43.99;99512.00;5012496;28;20022;-80
2020/12/12 04:01:24;;;;;;;11.13;3.05;;;;;;;13.82;43.89;99516.31;5013194;28;20105;-79
2020/12/12 04:03:50;;;;;;;14.10;3.38;;;;;;;13.85;43.83;99523.84;5014094;28;20076;-79
2020/12/12 04:06:16;;;;;;;17.75;3.05;;;;;;;13.93;43.50;99535.75;5014125;28;20050;-80
2020/12/12 04:08:41;;;;;;;12.60;3.38;;;;;;;13.86;43.63;99528.19;5014086;28;20037;-79
2020/12/12 04:11:07;;;;;;;12.02;4.30;;;;;;;13.84;43.79;99526.97;5014012;28;20033;-79
2020/12/12 04:13:32;;;;;;;14.02;3.55;;;;;;;13.55;44.09;99528.38;5012673;28;20033;-79
2020/12/12 04:15:58;;;;;;;15.35;2.88;;;;;;;13.73;43.96;99529.50;5013984;28;20438;-79
2020/12/12 04:18:24;;;;;;;17.57;3.53;;;;;;;13.40;44.65;99537.47;5012680;28;20538;-79
2020/12/12 04:20:49;;;;;;;16.65;3.42;;;;;;;13.54;43.96;99543.25;5013564;28;20409;-79
2020/12/12 04:23:15;;;;;;;17.33;4.53;;;;;;;13.55;44.19;99542.88;5013867;28;20091;-79
2020/12/12 04:25:41;;;;;;;14.02;3.13;;;;;;;13.21;44.94;99544.53;5013809;28;20025;-79
2020/12/12 04:28:07;;;;;;;15.27;3.28;;;;;;;13.54;44.03;99546.00;5012506;28;20056;-79
2020/12/12 04:30:32;;;;;;;7.68;2.85;;;;;;;13.52;44.13;99551.81;5011459;28;20026;-79
2020/12/12 04:32:58;;;;;;;17.33;3.85;;;;;;;13.32;44.42;99551.03;5013395;28;20022;-79
2020/12/12 04:35:24;;;;;;;10.23;2.85;;;;;;;13.31;44.66;99563.19;5013589;28;20109;-79
2020/12/12 04:37:50;;;;;;;10.10;3.38;;;;;;;13.08;45.24;99570.47;5013547;28;20026;-79
2020/12/12 04:40:15;;;;;;;7.03;2.80;;;;;;;13.45;44.28;99573.66;5013438;28;20034;-79
2020/12/12 04:42:42;;;;;;;11.68;2.75;;;;;;;13.25;44.73;99567.34;5012679;28;20033;-79
2020/12/12 04:45:10;;;;;;;15.43;3.33;;;;;;;13.53;44.10;99569.91;5011621;28;20049;-80
2020/12/12 04:47:36;;;;;;;14.32;3.90;;;;;;;13.46;44.40;99571.72;5013434;28;20040;-79
2020/12/12 04:50:03;;;;;;;16.38;5.05;;;;;;;13.20;44.66;99575.84;5013162;28;20033;-80
2020/12/12 04:52:30;;;;;;;12.80;3.27;;;;;;;13.41;44.12;99572.78;5013035;28;20030;-79
2020/12/12 04:55:01;;;;;;;9.83;2.77;;;;;;;13.27;44.60;99573.25;5011979;28;20456;-78
2020/12/12 04:57:33;;;;;;;12.30;2.93;;;;;;;13.26;44.48;99573.63;5013342;28;20036;-79
2020/12/12 05:00:00;;;;;;;11.23;3.10;;;;;;;13.30;44.25;99577.25;5013323;28;20456;-79
2020/12/12 05:02:26;;;;;;;8.93;2.53;;;;;;;13.29;44.15;99576.44;5013240;28;20468;-79
2020/12/12 05:04:51;;;;;;;10.63;3.20;;;;;;;13.49;43.70;99580.00;5013205;28;20034;-79
2020/12/12 05:07:17;;;;;;;11.35;3.10;;;;;;;13.66;43.11;99567.78;5012903;28;20396;-79
2020/12/12 05:09:44;;;;;;;13.77;3.13;;;;;;;13.54;43.49;99576.97;5013005;28;20061;-79
2020/12/12 05:12:13;;;;;;;8.00;3.27;;;;;;;13.50;43.52;99591.78;5013044;28;20080;-79
2020/12/12 05:14:38;;;;;;;6.85;2.88;;;;;;;13.44;43.94;99593.19;5012976;28;20032;-79
2020/12/12 05:17:07;;;;;;;9.13;2.67;;;;;;;13.72;43.04;99588.31;5013036;28;20034;-79
2020/12/12 05:19:33;;;;;;;10.53;3.27;;;;;;;13.53;43.65;99599.31;5012818;28;20468;-79
2020/12/12 05:22:02;;;;;;;10.80;3.25;;;;;;;13.26;44.15;99599.09;5012820;28;20045;-79
2020/12/12 05:24:28;;;;;;;9.68;3.45;;;;;;;13.57;43.27;99595.47;5012902;28;20041;-80
2020/12/12 05:27:00;;;;;;;10.70;2.80;;;;;;;13.65;43.32;99610.13;5012880;28;20025;-79
2020/12/12 05:29:25;;;;;;;13.32;2.78;;;;;;;13.21;44.47;99601.31;5012919;28;20032;-79
2020/12/12 05:31:53;;;;;;;12.60;2.37;;;;;;;13.00;44.93;99613.41;5012921;28;20033;-79
2020/12/12 05:34:18;;;;;;;6.00;1.77;;;;;;;12.94;45.22;99611.28;5012885;28;20022;-79
2020/12/12 05:36:44;;;;;;;9.60;3.17;;;;;;;13.39;44.18;99615.47;5012879;28;20030;-79
2020/12/12 05:39:11;;;;;;;11.70;2.80;;;;;;;13.11;44.71;99618.31;5012790;28;20380;-78
2020/12/12 05:41:38;;;;;;;6.37;2.27;;;;;;;13.23;44.35;99626.47;5012766;28;20034;-79
2020/12/12 05:44:04;;;;;;;6.97;2.60;;;;;;;13.30;44.34;99629.38;5016585;28;20465;-79
2020/12/12 05:46:31;;;;;;;9.90;2.67;;;;;;;13.15;44.43;99630.97;5016731;28;20026;-80
2020/12/12 05:48:58;;;;;;;9.60;3.40;;;;;;;13.12;44.60;99648.13;5016794;28;20037;-79
2020/12/12 05:51:27;;;;;;;10.95;3.55;;;;;;;13.25;44.30;99657.06;5016654;28;20022;-79
2020/12/12 05:53:54;;;;;;;14.50;2.97;;;;;;;13.21;44.38;99661.69;5016555;28;20076;-79
2020/12/12 05:56:21;;;;;;;11.60;4.00;;;;;;;12.94;45.08;99655.16;5016521;28;20025;-79
2020/12/12 05:58:47;;;;;;;14.02;2.65;;;;;;;13.06;44.79;99658.56;5016579;28;20026;-79
2020/12/12 06:01:18;;;;;;;8.15;2.08;;;;;;;13.29;44.20;99646.97;5016533;28;20116;-80
2020/12/12 06:04:00;;;;;;;7.28;2.00;;;;;;;12.86;45.18;99667.09;5016439;28;20044;-79
2020/12/12 06:06:26;;;;;;;8.20;2.28;;;;;;;13.39;43.87;99656.63;5016450;28;20388;-79
2020/12/12 06:09:10;;;;;;;7.03;2.33;;;;;;;13.00;44.96;99667.44;5016404;28;20026;-79
2020/12/12 06:11:43;;;;;;;5.63;2.20;;;;;;;13.28;44.09;99668.13;5016291;28;20041;-79
2020/12/12 06:14:09;;;;;;;7.55;2.58;;;;;;;13.03;44.68;99673.00;5016189;28;20030;-79
2020/12/12 06:16:37;;;;;;;8.88;2.60;;;;;;;13.22;44.28;99682.47;5016457;28;20033;-78
2020/12/12 06:19:07;;;;;;;9.85;2.65;;;;;;;13.29;44.04;99686.16;5016170;28;20026;-79
2020/12/12 06:21:38;;;;;;;12.93;2.53;;;;;;;13.31;44.02;99686.63;5015920;28;20037;-79
2020/12/12 06:24:05;;;;;;;12.53;3.03;;;;;;;13.31;44.12;99694.84;5016061;28;20072;-80
2020/12/12 06:26:50;;;;;;;9.98;2.67;;;;;;;13.22;44.41;99693.44;5014753;28;20108;-79
2020/12/12 06:29:17;;;;;;;10.98;2.30;;;;;;;12.69;45.66;99698.34;5016065;28;20083;-79
2020/12/12 06:31:43;;;;;;;9.83;2.73;;;;;;;13.07;44.84;99692.25;5014675;28;20030;-79
2020/12/12 06:34:09;;;;;;;8.17;3.13;;;;;;;13.11;44.67;99698.66;5015836;28;20026;-79
2020/12/12 06:36:35;;;;;;;9.03;2.63;;;;;;;13.16;44.43;99712.09;5015832;28;20388;-78
2020/12/12 06:39:17;;;;;;;14.75;3.80;;;;;;;13.14;44.46;99706.16;5015789;28;20028;-79
2020/12/12 06:41:43;;;;;;;12.03;2.20;;;;;;;13.17;44.53;99710.94;5014554;28;20116;-79
2020/12/12 06:44:09;;;;;;;14.43;3.35;;;;;;;13.18;44.52;99712.53;5015735;28;20472;-78
2020/12/12 06:46:54;;;;;;;10.43;2.37;;;;;;;13.09;44.55;99719.34;5015555;28;20030;-79
2020/12/12 06:49:21;;;;;;;11.05;2.40;;;;;;;12.97;44.81;99712.00;5014231;28;20105;-79
2020/12/12 06:51:48;;;;;;;8.20;2.00;;;;;;;12.81;45.21;99720.22;5014323;28;20072;-78
2020/12/12 06:54:14;;;;;;;11.30;2.25;;;;;;;13.05;44.79;99717.31;5014505;28;20022;-79
2020/12/12 06:56:39;;;;;;;8.13;1.90;;;;;;;12.84;45.52;99714.03;5015551;28;20030;-79
2020/12/12 06:59:25;;;;;;;8.50;2.10;;;;;;;12.80;45.39;99721.38;5014097;28;20029;-78
2020/12/12 07:01:58;;;;;;;9.23;1.55;;;;;;;12.65;45.85;99728.44;5014220;28;20444;-80
2020/12/12 07:04:32;;;;;;;5.17;1.47;;;;;;;13.01;44.95;99723.88;5014153;28;20021;-77
2020/12/12 07:07:17;;;;;;;8.90;1.92;;;;;;;12.99;44.86;99728.88;5359018;22;20426;-92
2020/12/12 07:09:43;;;;;;;9.65;1.83;;;;;;;13.20;44.02;99734.94;5000358;28;20030;-94
2020/12/12 07:12:09;;;;;;;8.38;2.08;;;;;;;13.17;44.57;99741.13;4999958;28;20483;-89
2020/12/12 07:14:37;;;;;;;8.63;2.07;;;;;;;13.22;44.06;99740.84;5000339;28;20093;-88
2020/12/12 07:17:04;;;;;;;9.33;2.17;;;;;;;13.29;43.98;99735.56;4999697;28;20030;-81
2020/12/12 07:19:37;;;;;;;12.05;2.42;;;;;;;13.22;44.13;99737.31;4999459;28;20124;-92
2020/12/12 07:22:07;;;;;;;15.07;4.32;;;;;;;13.22;44.11;99740.06;5017695;28;20030;-90
2020/12/12 07:24:33;;;;;;;11.10;2.78;;;;;;;13.24;44.24;99743.28;4999189;28;20052;-86
2020/12/12 07:26:59;;;;;;;11.83;4.13;;;;;;;13.24;43.89;99748.75;4999271;28;20088;-91
2020/12/12 07:29:26;;;;;;;8.38;1.95;;;;;;;13.17;44.68;99754.03;4999197;28;20022;-94
2020/12/12 07:31:52;;;;;;;9.75;2.55;;;;;;;13.22;44.32;99751.03;4999193;28;20048;-89
2020/12/12 07:34:22;;;;;;;10.50;3.10;;;;;;;13.21;44.42;99750.25;4998774;28;20482;-89
2020/12/12 07:37:02;;;;;;;10.02;3.35;;;;;;;12.92;45.19;99767.09;4998784;28;20029;-87
2020/12/12 07:39:34;;;;;;;8.87;2.57;;;;;;;12.88;45.22;99771.69;4998911;28;20029;-88
2020/12/12 07:42:01;;;;;;;8.73;3.10;;;;;;;12.67;45.86;99764.50;4999067;28;20026;-87
2020/12/12 07:44:31;;;;;;;8.70;2.53;;;;;;;12.66;45.74;99768.38;5016244;28;20025;-87
2020/12/12 07:47:08;;;;;;;9.03;2.33;;;;;;;12.57;46.01;99775.19;5015269;28;20029;-86
2020/12/12 07:49:36;;;;;;;11.47;2.60;;;;;;;12.85;45.30;99781.44;5011257;28;20033;-86
2020/12/12 07:52:03;;;;;;;8.13;1.93;;;;;;;12.20;46.95;99798.00;4998164;28;20036;-86
2020/12/12 07:54:35;;;;;;;7.05;1.73;;;;;;;12.38;46.21;99797.72;4998482;28;20026;-87
2020/12/12 07:57:02;;;;;;;7.00;2.10;;;;;;;12.38;46.44;99808.69;5014851;28;20060;-87
2020/12/12 07:59:28;;;;;;;10.83;2.73;;;;;;;12.33;46.25;99809.75;5014760;28;20018;-91
2020/12/12 08:02:00;;;;;;;6.07;2.22;;;;;;;12.19;46.76;99817.53;4998191;28;20388;-90
2020/12/12 08:04:25;;;;;;;8.13;1.70;;;;;;;12.28;46.60;99820.94;4998570;28;20087;-87
2020/12/12 08:06:51;;;;;;;7.80;2.07;;;;;;;12.47;46.17;99825.81;5013462;28;20038;-89
2020/12/12 08:09:20;;;;;;;7.43;2.13;;;;;;;12.47;46.01;99825.81;4998224;28;20120;-86
2020/12/12 08:11:58;;;;;;;9.80;1.88;;;;;;;12.50;45.81;99841.53;4998039;28;20033;-87
2020/12/12 08:14:24;;;;;;;9.83;2.13;;;;;;;12.30;46.48;99843.28;4998041;28;20109;-86
2020/12/12 08:16:55;;;;;;;10.73;3.30;;;;;;;12.45;45.85;99847.25;4998309;28;20036;-81
2020/12/12 08:19:20;;;;;;;12.93;3.40;;;;;;;12.57;45.68;99828.03;5014833;28;20502;-89
2020/12/12 08:21:50;;;;;;;9.63;3.47;;;;;;;12.56;45.37;99853.06;4998606;28;20026;-89
2020/12/12 08:24:16;;;;;;;6.82;2.22;;;;;;;12.68;45.12;99853.00;5001124;28;20385;-92
2020/12/12 08:26:41;;;;;;;6.37;2.20;;;;;;;12.41;45.86;99860.06;4998977;28;20030;-87
2020/12/12 08:29:07;;;;;;;11.67;3.57;;;;;;;12.67;44.93;99863.16;4999396;28;20038;-88
2020/12/12 08:31:40;;;;;;;9.50;3.13;;;;;;;12.08;46.41;99877.44;5010034;28;20029;-85
2020/12/12 08:34:07;;;;;;;7.00;2.03;;;;;;;12.38;45.86;99882.66;4997894;28;20029;-89
2020/12/12 08:36:34;;;;;;;7.80;2.35;;;;;;;12.41;45.59;99879.22;4998195;28;20026;-90
2020/12/12 08:39:05;;;;;;;9.50;3.15;;;;;;;12.09;46.19;99886.44;4998073;28;20061;-91
2020/12/12 08:41:39;;;;;;;8.10;2.73;;;;;;;12.28;45.78;99897.63;4997723;28;20387;-88
2020/12/12 08:44:06;;;;;;;6.17;1.90;;;;;;;12.43;45.51;99899.66;4997671;28;20033;-91
2020/12/12 08:46:32;;;;;;;7.93;4.70;;;;;;;12.53;45.06;99906.59;4997609;28;20037;-93
2020/12/12 08:48:58;;;;;;;14.50;6.33;;;;;;;12.34;45.58;99904.47;4994790;28;20038;-89
2020/12/12 08:51:28;;;;;;;12.30;6.73;;;;;;;12.72;44.78;99904.03;5008255;28;20090;-91
2020/12/12 08:53:55;;;;;;;10.97;2.33;;;;;;;12.82;44.67;99912.91;4994222;28;20038;-90
2020/12/12 08:56:26;;;;;;;14.88;4.18;;;;;;;12.68;45.05;99919.56;4995530;28;20070;-92
2020/12/12 08:59:06;;;;;;;9.43;2.63;;;;;;;12.88;44.63;99926.03;5010430;28;20037;-88
2020/12/12 09:01:39;;;;;;;11.25;2.22;;;;;;;13.30;43.62;99929.22;4994407;28;20396;-90
2020/12/12 09:04:06;;;;;;;10.20;1.90;;;;;;;13.49;43.15;99936.75;4994164;28;20042;-89
2020/12/12 09:06:45;;;;;;;7.07;2.23;;;;;;;13.33;43.52;99934.00;4994209;28;20057;-92
2020/12/12 09:09:27;;;;;;;11.38;2.05;;;;;;;13.21;44.22;99942.25;4994497;28;20046;-90
2020/12/12 09:12:01;;;;;;;6.37;2.30;;;;;;;13.50;43.21;99937.56;4994271;28;20049;-90
2020/12/12 09:14:32;;;;;;;13.53;2.93;;;;;;;13.44;43.65;99949.94;4994193;28;20033;-90
2020/12/12 09:17:00;;;;;;;8.50;2.67;;;;;;;13.55;43.32;99942.78;4993667;28;20023;-93
2020/12/12 09:19:27;;;;;;;5.77;2.00;;;;;;;13.55;43.22;99940.84;4993966;28;20507;-88
2020/12/12 09:21:53;;;;;;;6.70;2.37;;;;;;;13.79;43.02;99944.59;5010341;28;20165;-90
2020/12/12 09:24:21;;;;;;;11.57;2.60;;;;;;;13.85;42.84;99948.66;4993977;28;20033;-89
2020/12/12 09:26:48;;;;;;;5.37;2.47;;;;;;;13.96;42.77;99957.16;4996900;28;20026;-90
2020/12/12 09:29:13;;;;;;;11.80;2.63;;;;;;;13.99;42.79;99964.72;5014506;28;20032;-89
2020/12/12 09:31:39;;;;;;;7.67;2.37;;;;;;;13.89;43.12;99971.50;4996624;28;20034;-89
2020/12/12 09:34:05;;;;;;;8.93;3.10;;;;;;;13.95;42.63;99969.31;5013271;28;20480;-90
2020/12/12 09:36:31;;;;;;;9.90;3.03;;;;;;;13.89;42.87;99966.81;4997547;28;20061;-92
2020/12/12 09:38:56;;;;;;;6.10;2.33;;;;;;;14.06;42.76;99971.19;4996853;28;20109;-88
2020/12/12 09:41:22;;;;;;;13.57;2.87;;;;;;;13.99;42.89;99975.69;5014475;28;20026;-90
2020/12/12 09:43:48;;;;;;;11.87;2.50;;;;;;;14.12;42.53;99977.19;5014287;28;20156;-91
2020/12/12 09:46:13;;;;;;;12.70;2.37;;;;;;;13.38;44.47;99979.59;4996702;28;20026;-89
2020/12/12 09:48:41;;;;;;;6.88;2.25;;;;;;;13.99;43.13;99976.50;4996669;28;20034;-86
2020/12/12 09:51:09;;;;;;;8.25;2.83;;;;;;;13.98;43.18;99979.56;4996659;28;20034;-87
2020/12/12 09:53:34;;;;;;;11.57;2.07;;;;;;;14.02;43.40;99985.97;4997075;28;20030;-87
2020/12/12 09:56:00;;;;;;;8.67;2.17;;;;;;;14.11;43.03;99992.88;4997012;28;20052;-90
2020/12/12 09:58:26;;;;;;;12.10;2.47;;;;;;;14.16;42.95;99994.56;4997025;28;20026;-88
2020/12/12 10:00:52;;;;;;;10.50;2.65;;;;;;;13.97;43.54;99995.25;4996227;28;20038;-88
2020/12/12 10:03:18;;;;;;;5.57;1.83;;;;;;;14.36;42.62;99990.75;4996309;28;20558;-89
2020/12/12 10:05:44;;;;;;;13.75;2.47;;;;;;;14.27;43.15;100003.06;4996693;28;20083;-90
2020/12/12 10:08:11;;;;;;;4.57;2.10;;;;;;;14.43;42.59;100001.91;5014940;28;20042;-85
2020/12/12 10:10:36;;;;;;;8.57;2.95;;;;;;;13.78;43.70;100017.91;4996604;28;20033;-90
2020/12/12 10:13:02;;;;;;;9.27;2.60;;;;;;;14.37;42.67;100006.06;5000048;28;20037;-90
2020/12/12 10:15:28;;;;;;;9.88;2.03;;;;;;;13.97;43.50;100019.16;4997339;28;20120;-88
2020/12/12 10:17:54;;;;;;;10.18;2.65;;;;;;;14.23;43.20;100019.47;4997336;28;20034;-88
2020/12/12 10:20:20;;;;;;;7.47;2.08;;;;;;;14.52;42.60;100011.94;4995613;28;20065;-87
2020/12/12 10:22:46;;;;;;;10.25;1.92;;;;;;;14.32;43.02;100016.53;4996697;28;20026;-89
2020/12/12 10:25:12;;;;;;;11.40;3.10;;;;;;;14.59;42.47;100021.16;4996112;28;20026;-90
2020/12/12 10:27:39;;;;;;;10.13;2.10;;;;;;;14.13;43.61;100031.78;4996226;28;20080;-89
2020/12/12 10:30:06;;;;;;;10.93;3.10;;;;;;;14.48;42.75;100025.59;4998100;28;20113;-89
2020/12/12 10:32:32;;;;;;;7.80;2.50;;;;;;;14.52;43.08;100039.44;4999639;28;20026;-92
2020/12/12 10:34:58;;;;;;;7.68;2.88;;;;;;;14.42;43.05;100036.03;4999639;28;20515;-88
2020/12/12 10:37:23;;;;;;;8.05;2.25;;;;;;;14.78;42.63;100028.66;4999739;28;20033;-87
2020/12/12 10:42:15;;;;;;;9.15;2.40;;;;;;;14.69;42.57;100052.81;5293551;23;20108;-93
2020/12/12 10:44:40;;;;;;;6.43;2.08;;;;;;;14.22;43.69;100061.03;4996119;28;20034;-85
2020/12/12 10:47:06;;;;;;;8.75;2.10;;;;;;;14.91;42.12;100056.84;4997590;28;20034;-88
2020/12/12 10:49:31;;;;;;;6.05;2.60;;;;;;;14.37;43.30;100069.28;4971921;28;20034;-88
2020/12/12 10:51:57;;;;;;;6.97;1.90;;;;;;;14.68;42.75;100073.22;4980665;28;20120;-88
2020/12/12 10:54:26;;;;;;;8.85;2.45;;;;;;;14.70;42.56;100070.88;4969116;28;20027;-88
2020/12/12 10:56:52;;;;;;;7.28;3.10;;;;;;;14.79;42.62;100074.25;4995050;28;20034;-91
2020/12/12 10:59:18;;;;;;;13.00;5.63;;;;;;;15.18;41.64;100072.38;4976866;28;20038;-88
2020/12/12 11:01:43;;;;;;;8.48;3.08;;;;;;;15.40;41.41;100072.84;4969035;28;20026;-90
2020/12/12 11:04:09;;;;;;;8.85;2.10;;;;;;;15.43;41.62;100081.19;4967948;28;20023;-89
2020/12/12 11:06:34;;;;;;;9.25;3.83;;;;;;;15.50;41.45;100081.34;4983980;28;20023;-87
2020/12/12 11:09:03;;;;;;;10.57;4.15;;;;;;;15.54;41.34;100084.94;4979696;28;20136;-90
2020/12/12 11:11:29;;;;;;;10.45;2.83;;;;;;;15.68;41.19;100078.16;4973355;28;20521;-88
2020/12/12 11:13:54;;;;;;;19.98;10.30;;;;;;;15.84;40.73;100087.13;4977100;28;20026;-90
2020/12/12 11:16:23;;;;;;;20.40;10.75;;;;;;;15.77;41.06;100093.31;4980838;28;20030;-91
2020/12/12 11:18:53;;;;;;;16.85;15.23;;;;;;;15.80;40.90;100089.84;4981691;28;20026;-92
2020/12/12 11:21:23;;;;;;;8.07;4.03;;;;;;;15.85;40.96;100094.25;4983378;28;20558;-90
2020/12/12 11:23:49;;;;;;;45.50;40.85;;;;;;;15.94;40.80;100096.75;4982166;28;20037;-94
2020/12/12 11:26:16;;;;;;;18.75;16.35;;;;;;;16.24;40.41;100097.72;4986622;28;20033;-92
2020/12/12 11:28:43;;;;;;;11.95;3.20;;;;;;;15.88;40.59;100110.06;4968960;28;20122;-93
2020/12/12 11:31:09;;;;;;;25.33;22.77;;;;;;;16.25;40.30;100095.78;4979537;28;20022;-88
2020/12/12 11:33:37;;;;;;;12.60;8.90;;;;;;;16.32;40.22;100098.66;4965220;28;20109;-89